createdAt,value
2019-05-05T00:02:14.436Z,2.20
2019-05-05T00:05:04.831Z,2.30
2019-05-05T00:07:34.822Z,2.30
2019-05-05T00:10:04.661Z,2.30
2019-05-05T00:12:51.472Z,2.40
2019-05-05T00:15:55.157Z,2.40
2019-05-05T00:18:26.512Z,2.40
2019-05-05T00:20:55.476Z,2.40
2019-05-05T00:23:25.136Z,2.40
2019-05-05T00:25:55.251Z,2.40
2019-05-05T00:28:24.936Z,2.40
2019-05-05T00:30:55.397Z,2.40
2019-05-05T00:33:25.017Z,2.40
2019-05-05T00:35:54.702Z,2.40
2019-05-05T00:38:24.893Z,2.50
2019-05-05T00:40:55.019Z,2.50
2019-05-05T00:43:25.253Z,2.50
2019-05-05T00:45:57.580Z,2.50
2019-05-05T00:48:38.740Z,2.50
2019-05-05T00:51:07.696Z,2.50
2019-05-05T00:53:36.725Z,2.50
2019-05-05T00:56:05.821Z,2.50
2019-05-05T00:58:36.628Z,2.50
2019-05-05T01:01:34.331Z,2.50
2019-05-05T01:04:05.234Z,2.50
2019-05-05T01:06:36.012Z,2.50
2019-05-05T01:09:06.078Z,2.50
2019-05-05T01:11:35.654Z,2.40
2019-05-05T01:14:05.173Z,2.40
2019-05-05T01:16:35.167Z,2.40
2019-05-05T01:19:04.552Z,2.30
2019-05-05T01:21:34.889Z,2.30
2019-05-05T01:24:05.093Z,2.30
2019-05-05T01:26:35.352Z,2.30
2019-05-05T01:29:06.002Z,2.40
2019-05-05T01:31:35.115Z,2.30
2019-05-05T01:34:15.092Z,2.40
2019-05-05T01:36:45.265Z,2.40
2019-05-05T01:39:32.083Z,2.40
2019-05-05T01:42:04.963Z,2.30
2019-05-05T01:44:35.216Z,2.40
2019-05-05T01:47:05.333Z,2.40
2019-05-05T01:49:34.598Z,2.40
2019-05-05T01:52:04.376Z,2.40
2019-05-05T01:54:35.279Z,2.40
2019-05-05T01:57:05.408Z,2.40
2019-05-05T01:59:35.442Z,2.30
2019-05-05T02:02:04.568Z,2.30
2019-05-05T02:04:34.333Z,2.30
2019-05-05T02:07:05.434Z,2.30
2019-05-05T02:09:35.413Z,2.30
2019-05-05T02:12:05.285Z,2.30
2019-05-05T02:14:35.220Z,2.30
2019-05-05T02:17:05.029Z,2.30
2019-05-05T02:19:35.007Z,2.30
2019-05-05T02:22:05.290Z,2.30
2019-05-05T02:24:35.286Z,2.30
2019-05-05T02:27:05.185Z,2.30
2019-05-05T02:29:45.605Z,2.30
2019-05-05T02:32:30.372Z,2.30
2019-05-05T02:35:00.334Z,2.20
2019-05-05T02:37:29.356Z,2.20
2019-05-05T02:40:03.164Z,2.30
2019-05-05T02:42:30.142Z,2.30
2019-05-05T02:45:05.087Z,2.30
2019-05-05T02:47:54.965Z,2.40
2019-05-05T02:50:25.241Z,2.40
2019-05-05T02:52:55.184Z,2.40
2019-05-05T02:55:24.520Z,2.40
2019-05-05T02:57:54.490Z,2.30
2019-05-05T03:00:41.184Z,2.30
2019-05-05T03:03:10.889Z,2.30
2019-05-05T03:05:39.933Z,2.30
2019-05-05T03:08:09.076Z,2.30
2019-05-05T03:10:40.433Z,2.30
2019-05-05T03:13:11.242Z,2.30
2019-05-05T03:15:48.100Z,2.20
2019-05-05T03:18:17.244Z,2.20
2019-05-05T03:21:01.241Z,2.20
2019-05-05T03:23:18.373Z,2.20
2019-05-05T03:25:47.830Z,2.20
2019-05-05T03:28:16.954Z,2.20
2019-05-05T03:30:45.997Z,2.20
2019-05-05T03:33:16.234Z,2.10
2019-05-05T03:35:46.014Z,2.10
2019-05-05T03:38:15.942Z,2.20
2019-05-05T03:40:47.545Z,2.20
2019-05-05T03:43:26.769Z,2.10
2019-05-05T03:45:58.770Z,2.10
2019-05-05T03:48:27.896Z,2.10
2019-05-05T03:50:57.414Z,2.00
2019-05-05T03:53:26.561Z,1.90
2019-05-05T03:55:55.711Z,1.90
2019-05-05T03:58:25.036Z,1.90
2019-05-05T04:01:34.748Z,1.90
2019-05-05T04:04:21.292Z,1.90
2019-05-05T04:06:51.097Z,1.90
2019-05-05T04:09:20.149Z,1.90
2019-05-05T04:11:49.388Z,1.90
2019-05-05T04:14:18.686Z,1.90
2019-05-05T04:17:05.456Z,1.90
2019-05-05T04:19:35.736Z,1.90
2019-05-05T04:22:04.787Z,1.90
2019-05-05T04:24:34.258Z,1.90
2019-05-05T04:27:04.063Z,2.00
2019-05-05T04:29:34.527Z,2.00
2019-05-05T04:32:04.662Z,2.00
2019-05-05T04:34:34.723Z,2.00
2019-05-05T04:37:04.247Z,2.10
2019-05-05T04:39:34.332Z,2.10
2019-05-05T04:42:04.710Z,2.10
2019-05-05T04:44:34.613Z,2.10
2019-05-05T04:47:10.490Z,2.10
2019-05-05T04:49:45.510Z,2.10
2019-05-05T04:52:15.385Z,2.10
2019-05-05T04:54:47.736Z,2.20
2019-05-05T04:57:16.768Z,2.20
2019-05-05T04:59:46.637Z,2.20
2019-05-05T05:02:34.151Z,2.20
2019-05-05T05:05:14.377Z,2.20
2019-05-05T05:07:43.946Z,2.20
2019-05-05T05:10:13.817Z,2.20
2019-05-05T05:12:43.617Z,2.20
2019-05-05T05:15:14.578Z,2.20
2019-05-05T05:17:50.053Z,2.20
2019-05-05T05:20:19.075Z,2.20
2019-05-05T05:22:48.054Z,2.20
2019-05-05T05:25:17.096Z,2.10
2019-05-05T05:27:46.131Z,2.10
2019-05-05T05:30:15.241Z,2.10
2019-05-05T05:32:44.674Z,2.10
2019-05-05T05:35:14.224Z,2.10
2019-05-05T05:37:44.770Z,2.00
2019-05-05T05:40:19.757Z,1.90
2019-05-05T05:42:48.773Z,1.90
2019-05-05T05:45:34.320Z,1.80
2019-05-05T05:48:11.656Z,1.80
2019-05-05T05:50:45.249Z,1.80
2019-05-05T05:53:14.279Z,1.80
2019-05-05T05:55:44.803Z,1.80
2019-05-05T05:58:14.186Z,1.70
2019-05-05T06:00:44.283Z,1.70
2019-05-05T06:03:14.110Z,1.70
2019-05-05T06:05:43.733Z,1.80
2019-05-05T06:08:14.180Z,1.70
2019-05-05T06:10:44.307Z,1.70
2019-05-05T06:13:15.425Z,1.70
2019-05-05T06:15:45.780Z,1.60
2019-05-05T06:18:14.890Z,1.70
2019-05-05T06:20:44.613Z,1.70
2019-05-05T06:23:14.722Z,1.70
2019-05-05T06:25:44.489Z,1.70
2019-05-05T06:28:14.487Z,1.70
2019-05-05T06:30:44.266Z,1.80
2019-05-05T06:33:13.862Z,1.80
2019-05-05T06:35:44.449Z,1.80
2019-05-05T06:38:13.776Z,1.80
2019-05-05T06:41:04.077Z,1.80
2019-05-05T06:43:55.228Z,1.90
2019-05-05T06:46:27.696Z,2.00
2019-05-05T06:48:56.740Z,2.10
2019-05-05T06:51:25.784Z,2.10
2019-05-05T06:53:54.741Z,2.20
2019-05-05T06:56:23.879Z,2.30
2019-05-05T06:58:54.038Z,2.40
2019-05-05T07:01:24.825Z,2.50
2019-05-05T07:03:54.215Z,2.50
2019-05-05T07:06:23.920Z,2.50
2019-05-05T07:08:54.581Z,2.50
2019-05-05T07:11:23.890Z,2.60
2019-05-05T07:13:53.783Z,2.60
2019-05-05T07:16:24.354Z,2.70
2019-05-05T07:18:54.056Z,2.70
2019-05-05T07:21:23.799Z,2.70
2019-05-05T07:23:53.904Z,2.70
2019-05-05T07:26:23.754Z,2.70
2019-05-05T07:28:54.133Z,2.70
2019-05-05T07:31:23.938Z,2.80
2019-05-05T07:33:54.460Z,2.80
2019-05-05T07:36:54.604Z,2.80
2019-05-05T07:39:23.799Z,2.80
2019-05-05T07:41:54.135Z,2.80
2019-05-05T07:44:29.131Z,2.90
2019-05-05T07:46:54.435Z,2.90
2019-05-05T07:49:24.311Z,2.90
2019-05-05T07:51:54.668Z,2.90
2019-05-05T07:54:23.928Z,3.10
2019-05-05T07:56:53.842Z,3.00
2019-05-05T07:59:23.778Z,3.10
2019-05-05T08:01:54.835Z,3.00
2019-05-05T08:04:24.334Z,3.10
2019-05-05T08:06:53.930Z,3.20
2019-05-05T08:09:24.932Z,3.20
2019-05-05T08:11:54.291Z,3.20
2019-05-05T08:14:24.584Z,3.20
2019-05-05T08:17:11.537Z,3.20
2019-05-05T08:19:44.822Z,3.10
2019-05-05T08:22:14.215Z,3.00
2019-05-05T08:25:05.395Z,2.90
2019-05-05T08:27:53.753Z,2.90
2019-05-05T08:30:28.560Z,3.00
2019-05-05T08:32:57.785Z,3.10
2019-05-05T08:35:26.823Z,3.00
2019-05-05T08:37:55.857Z,3.00
2019-05-05T08:40:24.901Z,2.90
2019-05-05T08:42:54.113Z,2.90
2019-05-05T08:45:26.431Z,2.80
2019-05-05T08:47:54.319Z,2.90
2019-05-05T08:50:26.785Z,2.90
2019-05-05T08:52:54.221Z,3.00
2019-05-05T08:55:24.912Z,3.00
2019-05-05T08:57:54.131Z,3.00
2019-05-05T09:00:24.473Z,3.00
2019-05-05T09:02:54.310Z,2.90
2019-05-05T09:05:23.889Z,2.90
2019-05-05T09:07:54.759Z,2.90
2019-05-05T09:10:23.965Z,2.80
2019-05-05T09:12:54.307Z,2.80
2019-05-05T09:15:24.301Z,2.90
2019-05-05T09:17:54.434Z,3.00
2019-05-05T09:20:24.287Z,3.10
2019-05-05T09:22:53.661Z,3.10
2019-05-05T09:25:47.888Z,3.20
2019-05-05T09:28:36.736Z,3.30
2019-05-05T09:31:06.070Z,3.40
2019-05-05T09:33:35.180Z,3.50
2019-05-05T09:36:04.774Z,3.50
2019-05-05T09:38:34.716Z,3.50
2019-05-05T09:41:03.977Z,3.60
2019-05-05T09:43:34.521Z,3.80
2019-05-05T09:46:04.032Z,3.80
2019-05-05T09:48:33.676Z,3.70
2019-05-05T09:51:04.386Z,3.80
2019-05-05T09:53:34.488Z,3.80
2019-05-05T09:56:04.179Z,3.90
2019-05-05T09:58:40.974Z,4.00
2019-05-05T10:01:10.085Z,4.00
2019-05-05T10:03:39.108Z,4.20
2019-05-05T10:06:08.169Z,4.10
2019-05-05T10:08:37.197Z,4.20
2019-05-05T10:11:06.241Z,4.30
2019-05-05T10:13:35.184Z,4.40
2019-05-05T10:16:04.928Z,4.30
2019-05-05T10:18:35.837Z,4.40
2019-05-05T10:21:04.774Z,4.30
2019-05-05T10:23:35.411Z,4.30
2019-05-05T10:26:07.543Z,4.30
2019-05-05T10:28:36.569Z,4.40
2019-05-05T10:31:05.576Z,4.40
2019-05-05T10:33:37.529Z,4.50
2019-05-05T10:36:06.550Z,4.60
2019-05-05T10:38:37.248Z,4.40
2019-05-05T10:41:06.212Z,4.40
2019-05-05T10:43:35.233Z,4.40
2019-05-05T10:46:04.261Z,4.50
2019-05-05T10:48:34.007Z,4.70
2019-05-05T10:51:04.193Z,4.80
2019-05-05T10:53:33.409Z,4.70
2019-05-05T10:56:04.294Z,4.80
2019-05-05T10:58:33.644Z,4.60
2019-05-05T11:01:04.290Z,4.50
2019-05-05T11:03:34.311Z,4.50
2019-05-05T11:06:04.514Z,4.40
2019-05-05T11:08:34.976Z,4.40
2019-05-05T11:11:06.299Z,4.50
2019-05-05T11:13:35.333Z,4.70
2019-05-05T11:16:04.380Z,4.80
2019-05-05T11:18:34.487Z,4.80
2019-05-05T11:21:04.114Z,4.80
2019-05-05T11:23:34.563Z,5.00
2019-05-05T11:26:04.010Z,5.20
2019-05-05T11:28:33.943Z,5.50
2019-05-05T11:31:04.457Z,5.70
2019-05-05T11:33:43.928Z,5.80
2019-05-05T11:36:18.755Z,5.90
2019-05-05T11:38:47.828Z,6.30
2019-05-05T11:41:16.864Z,6.60
2019-05-05T11:43:45.738Z,6.80
2019-05-05T11:46:14.778Z,6.80
2019-05-05T11:48:44.143Z,7.10
2019-05-05T11:51:15.089Z,7.40
2019-05-05T11:53:44.694Z,7.60
2019-05-05T11:56:14.437Z,7.90
2019-05-05T11:58:44.250Z,8.30
2019-05-05T12:01:14.246Z,8.60
2019-05-05T12:03:44.336Z,8.70
2019-05-05T12:06:14.651Z,9.10
2019-05-05T12:08:45.978Z,9.50
2019-05-05T12:11:15.213Z,8.80
2019-05-05T12:13:44.348Z,9.00
2019-05-05T12:16:15.022Z,9.30
2019-05-05T12:18:44.825Z,9.60
2019-05-05T12:21:14.178Z,9.90
2019-05-05T12:23:44.411Z,9.90
2019-05-05T12:26:34.720Z,9.80
2019-05-05T12:29:13.974Z,9.30
2019-05-05T12:31:45.932Z,9.40
2019-05-05T12:34:15.078Z,9.30
2019-05-05T12:36:44.570Z,9.30
2019-05-05T12:39:14.397Z,9.40
2019-05-05T12:41:46.921Z,9.40
2019-05-05T12:44:23.648Z,9.40
2019-05-05T12:47:09.996Z,9.20
2019-05-05T12:49:39.033Z,9.00
2019-05-05T12:52:08.079Z,9.00
2019-05-05T12:54:37.116Z,8.70
2019-05-05T12:57:06.152Z,8.60
2019-05-05T12:59:35.109Z,8.60
2019-05-05T13:02:04.341Z,9.00
2019-05-05T13:04:33.925Z,9.20
2019-05-05T13:07:04.933Z,9.10
2019-05-05T13:09:33.940Z,8.90
2019-05-05T13:12:04.473Z,8.40
2019-05-05T13:14:33.704Z,8.00
2019-05-05T13:17:04.128Z,7.60
2019-05-05T13:19:49.636Z,7.30
2019-05-05T13:22:41.079Z,7.20
2019-05-05T13:25:33.857Z,7.10
2019-05-05T13:28:04.119Z,6.90
2019-05-05T13:30:34.377Z,6.60
2019-05-05T13:33:03.788Z,6.10
2019-05-05T13:35:34.060Z,5.80
2019-05-05T13:38:04.072Z,5.70
2019-05-05T13:40:34.548Z,5.60
2019-05-05T13:43:04.319Z,5.40
2019-05-05T13:45:43.567Z,5.20
2019-05-05T13:48:14.075Z,5.20
2019-05-05T13:50:48.279Z,5.10
2019-05-05T13:53:17.332Z,5.30
2019-05-05T13:55:46.318Z,5.80
2019-05-05T13:58:15.366Z,6.40
2019-05-05T14:00:44.482Z,6.60
2019-05-05T14:03:13.501Z,6.80
2019-05-05T14:05:43.683Z,6.90
2019-05-05T14:08:14.763Z,7.00
2019-05-05T14:10:43.776Z,7.10
2019-05-05T14:13:12.794Z,7.00
2019-05-05T14:15:43.959Z,6.90
2019-05-05T14:18:14.303Z,6.60
2019-05-05T14:20:43.614Z,6.50
2019-05-05T14:23:14.782Z,6.50
2019-05-05T14:25:44.081Z,6.50
2019-05-05T14:28:14.153Z,6.50
2019-05-05T14:30:57.624Z,6.60
2019-05-05T14:33:29.601Z,6.70
2019-05-05T14:36:08.508Z,6.70
2019-05-05T14:38:39.732Z,6.70
2019-05-05T14:41:08.790Z,6.50
2019-05-05T14:43:37.934Z,6.50
2019-05-05T14:46:07.081Z,6.30
2019-05-05T14:48:37.182Z,6.00
2019-05-05T14:51:06.392Z,5.60
2019-05-05T14:53:35.390Z,5.60
2019-05-05T14:56:04.730Z,5.50
2019-05-05T14:58:33.823Z,5.30
2019-05-05T15:01:04.473Z,5.30
2019-05-05T15:03:33.770Z,5.30
2019-05-05T15:06:15.382Z,5.20
2019-05-05T15:08:54.680Z,5.20
2019-05-05T15:11:34.768Z,5.20
2019-05-05T15:14:06.698Z,5.20
2019-05-05T15:16:34.749Z,5.30
2019-05-05T15:19:04.015Z,5.20
2019-05-05T15:21:34.002Z,5.20
2019-05-05T15:24:03.099Z,5.20
2019-05-05T15:26:34.355Z,5.20
2019-05-05T15:29:02.845Z,5.20
2019-05-05T15:31:34.071Z,5.30
2019-05-05T15:34:04.145Z,5.20
2019-05-05T15:36:33.508Z,5.10
2019-05-05T15:39:04.406Z,5.00
2019-05-05T15:41:35.608Z,4.80
2019-05-05T15:44:04.970Z,4.70
2019-05-05T15:46:34.015Z,4.70
2019-05-05T15:49:04.183Z,4.60
2019-05-05T15:51:34.334Z,4.60
2019-05-05T15:54:04.002Z,4.70
2019-05-05T15:56:34.018Z,4.70
2019-05-05T15:59:03.292Z,4.80
2019-05-05T16:01:34.449Z,4.90
2019-05-05T16:04:03.653Z,5.00
2019-05-05T16:06:34.452Z,5.10
2019-05-05T16:09:06.073Z,5.10
2019-05-05T16:11:35.125Z,5.10
2019-05-05T16:14:04.166Z,5.00
2019-05-05T16:16:40.791Z,4.90
2019-05-05T16:19:31.693Z,4.90
2019-05-05T16:22:06.848Z,5.00
2019-05-05T16:24:37.912Z,5.00
2019-05-05T17:08:57.489Z,5.20
2019-05-05T17:11:26.841Z,5.20
2019-05-05T17:14:17.856Z,5.10
2019-05-05T17:17:11.716Z,5.10
2019-05-05T17:19:53.978Z,5.10
2019-05-05T17:22:25.915Z,5.10
2019-05-05T17:24:55.260Z,5.10
2019-05-05T17:27:24.302Z,5.00
2019-05-05T17:29:53.632Z,5.00
2019-05-05T17:32:24.731Z,4.90
2019-05-05T17:34:54.193Z,5.00
2019-05-05T17:37:23.915Z,4.90
2019-05-05T17:39:58.308Z,4.90
2019-05-05T17:42:38.910Z,4.90
2019-05-05T17:45:24.292Z,4.90
2019-05-05T17:48:14.076Z,4.90
2019-05-05T17:51:10.727Z,4.90
2019-05-05T17:54:01.846Z,4.90
2019-05-05T17:56:30.978Z,4.90
2019-05-05T17:59:00.035Z,4.80
2019-05-05T18:01:29.066Z,4.80
2019-05-05T18:03:58.191Z,4.80
2019-05-05T18:06:34.431Z,4.70
2019-05-05T18:09:11.156Z,4.60
2019-05-05T18:12:17.256Z,4.50
2019-05-05T18:14:46.352Z,4.40
2019-05-05T18:17:15.389Z,4.30
2019-05-05T18:19:44.414Z,4.20
2019-05-05T18:22:13.950Z,4.00
2019-05-05T18:24:44.578Z,3.80
2019-05-05T18:27:14.161Z,3.70
2019-05-05T18:29:43.667Z,3.70
2019-05-05T18:32:13.830Z,3.70
2019-05-05T18:34:43.019Z,3.60
2019-05-05T18:37:12.045Z,3.50
2019-05-05T18:39:40.989Z,3.50
2019-05-05T18:42:16.377Z,3.50
2019-05-05T18:44:47.815Z,3.60
2019-05-05T18:47:20.314Z,3.60
2019-05-05T18:49:49.344Z,3.70
2019-05-05T18:52:18.388Z,3.70
2019-05-05T18:54:47.412Z,3.70
2019-05-05T18:57:16.561Z,3.70
2019-05-05T18:59:45.612Z,3.70
2019-05-05T19:02:24.551Z,3.70
2019-05-05T19:05:14.080Z,3.60
2019-05-05T19:07:56.212Z,3.60
2019-05-05T19:10:25.376Z,3.70
2019-05-05T19:12:54.441Z,3.60
2019-05-05T19:15:24.460Z,3.50
2019-05-05T19:17:53.532Z,3.40
2019-05-05T19:20:49.828Z,3.50
2019-05-05T19:23:18.852Z,3.40
2019-05-05T19:25:47.889Z,3.40
2019-05-05T19:28:16.916Z,3.30
2019-05-05T19:30:46.030Z,3.30
2019-05-05T19:33:15.523Z,3.30
2019-05-05T19:35:47.308Z,3.40
2019-05-05T19:38:15.821Z,3.40
2019-05-05T19:40:44.945Z,3.40
2019-05-05T19:43:14.096Z,3.50
2019-05-05T19:45:44.767Z,3.50
2019-05-05T19:48:14.956Z,3.50
2019-05-05T19:51:14.127Z,3.50
2019-05-05T19:53:44.655Z,3.50
2019-05-05T19:56:13.831Z,3.50
2019-05-05T19:58:57.567Z,3.40
2019-05-05T20:01:13.682Z,3.50
2019-05-05T20:03:44.065Z,3.40
2019-05-05T20:06:14.170Z,3.40
2019-05-05T20:08:44.331Z,3.40
2019-05-05T20:11:14.335Z,3.50
2019-05-05T20:13:44.547Z,3.50
2019-05-05T20:16:22.925Z,3.50
2019-05-05T20:18:51.957Z,3.50
2019-05-05T20:21:20.933Z,3.50
2019-05-05T20:23:49.958Z,3.50
2019-05-05T20:26:18.989Z,3.50
2019-05-05T20:28:48.026Z,3.50
2019-05-05T20:31:17.070Z,3.60
2019-05-05T20:33:54.386Z,3.60
2019-05-05T20:36:25.261Z,3.50
2019-05-05T20:38:55.024Z,3.60
2019-05-05T20:41:24.878Z,3.60
2019-05-05T20:43:54.424Z,3.60
2019-05-05T20:46:23.814Z,3.60
2019-05-05T20:48:54.534Z,3.60
2019-05-05T20:51:24.257Z,3.60
2019-05-05T20:53:54.180Z,3.70
2019-05-05T20:56:23.510Z,3.70
2019-05-05T20:58:54.724Z,3.60
2019-05-05T21:01:24.601Z,3.60
2019-05-05T21:03:53.741Z,3.60
2019-05-05T21:06:24.548Z,3.60
2019-05-05T21:08:53.473Z,3.60
2019-05-05T21:11:24.522Z,3.60
2019-05-05T21:13:54.363Z,3.70
2019-05-05T21:16:23.748Z,3.60
2019-05-05T21:18:53.893Z,3.60
2019-05-05T21:21:25.805Z,3.60
2019-05-05T21:23:56.836Z,3.60
2019-05-05T21:26:46.333Z,3.50
2019-05-05T21:29:15.489Z,3.50
2019-05-05T21:31:44.541Z,3.50
2019-05-05T21:34:13.969Z,3.50
2019-05-05T21:36:44.861Z,3.50
2019-05-05T21:39:14.802Z,3.50
2019-05-05T21:41:44.103Z,3.50
2019-05-05T21:44:14.725Z,3.50
2019-05-05T21:46:43.890Z,3.50
2019-05-05T21:49:13.667Z,3.50
2019-05-05T21:51:49.095Z,3.50
2019-05-05T21:54:45.976Z,3.50
2019-05-05T21:57:28.064Z,3.50
2019-05-05T21:59:58.871Z,3.40
2019-05-05T22:02:27.934Z,3.50
2019-05-05T22:04:56.978Z,3.50
2019-05-05T22:07:26.013Z,3.50
2019-05-05T22:09:55.033Z,3.50
2019-05-05T22:12:24.448Z,3.50
2019-05-05T22:14:55.099Z,3.50
2019-05-05T22:17:24.237Z,3.50
2019-05-05T22:20:06.252Z,3.50
2019-05-05T22:22:36.952Z,3.60
2019-05-05T22:25:06.246Z,3.50
2019-05-05T22:27:35.272Z,3.50
2019-05-05T22:30:10.154Z,3.50
2019-05-05T22:32:35.464Z,3.40
2019-05-05T22:35:05.343Z,3.50
2019-05-05T22:37:34.475Z,3.50
2019-05-05T22:40:03.573Z,3.50
2019-05-05T22:42:34.875Z,3.50
2019-05-05T22:45:04.604Z,3.50
2019-05-05T22:47:34.495Z,3.50
2019-05-05T22:50:04.412Z,3.50
2019-05-05T22:52:34.508Z,3.60
2019-05-05T22:55:04.503Z,3.60
2019-05-05T22:57:34.531Z,3.60
2019-05-05T23:00:04.068Z,3.60
2019-05-05T23:02:35.283Z,3.60
2019-05-05T23:05:11.076Z,3.60
2019-05-05T23:07:40.032Z,3.60
2019-05-05T23:10:09.070Z,3.60
2019-05-05T23:12:38.022Z,3.60
2019-05-05T23:15:08.900Z,3.60
2019-05-05T23:17:49.540Z,3.60
2019-05-05T23:20:46.221Z,3.60
2019-05-05T23:23:30.741Z,3.50
2019-05-05T23:26:01.158Z,3.50
2019-05-05T23:28:30.190Z,3.50
2019-05-05T23:30:59.160Z,3.60
2019-05-05T23:33:28.192Z,3.50
2019-05-05T23:35:57.228Z,3.60
2019-05-05T23:38:26.192Z,3.60
2019-05-05T23:40:55.209Z,3.60
2019-05-05T23:43:24.787Z,3.60
2019-05-05T23:45:54.151Z,3.60
2019-05-05T23:48:24.064Z,3.60
2019-05-05T23:50:54.238Z,3.60
2019-05-05T23:53:24.887Z,3.60
2019-05-05T23:55:54.704Z,3.60
2019-05-05T23:58:24.064Z,3.60
